Time;durP1;ratioP1;P1;durP2;ratioP2;P2;SDS_P1;SDS_P2;PMS_P1;PMS_P2;Temp;Humidity;BMP_temperature;BMP_pressure;BME280_temperature;BME280_humidity;BME280_pressure;Samples;Min_cycle;Max_cycle;Signal;HPM_P1;HPM_P2
2020/12/01 00:00:00;;;;;;;5.57;5.27;;;3.70;99.90;;;;;;5071486;28;20301;-52
2020/12/01 00:02:26;;;;;;;4.60;4.20;;;3.70;99.90;;;;;;5071504;28;20186;-49
2020/12/01 00:04:52;;;;;;;4.57;4.37;;;3.70;99.90;;;;;;5071622;28;20703;-49
2020/12/01 00:07:18;;;;;;;4.73;4.53;;;3.70;99.90;;;;;;5071241;28;20203;-52
2020/12/01 00:09:44;;;;;;;4.70;4.50;;;3.70;99.90;;;;;;5071555;28;20758;-51
2020/12/01 00:12:10;;;;;;;4.60;4.40;;;3.70;99.90;;;;;;5071288;28;20289;-50
2020/12/01 00:14:35;;;;;;;4.77;4.47;;;3.70;99.90;;;;;;5071604;28;20448;-51
2020/12/01 00:17:01;;;;;;;4.50;4.30;;;3.70;99.90;;;;;;5071347;28;20179;-51
2020/12/01 00:19:27;;;;;;;4.43;4.23;;;3.60;99.90;;;;;;5071369;28;20671;-52
2020/12/01 00:21:52;;;;;;;4.70;4.40;;;3.60;99.90;;;;;;5071505;28;20554;-53
2020/12/01 00:24:18;;;;;;;5.10;4.80;;;3.70;99.90;;;;;;5071314;28;20195;-50
2020/12/01 00:26:44;;;;;;;5.23;5.03;;;3.70;99.90;;;;;;5071141;28;20236;-49
2020/12/01 00:29:10;;;;;;;5.43;5.03;;;3.60;99.90;;;;;;5071304;28;20649;-50
2020/12/01 00:31:39;;;;;;;4.80;4.60;;;3.70;99.90;;;;;;5071563;28;20186;-50
2020/12/01 00:34:07;;;;;;;4.77;4.57;;;3.60;99.90;;;;;;5071071;28;20419;-50
2020/12/01 00:36:32;;;;;;;4.43;4.23;;;3.60;99.90;;;;;;5071257;28;20409;-49
2020/12/01 00:38:58;;;;;;;5.00;4.80;;;3.60;99.90;;;;;;5071090;28;20820;-50
2020/12/01 00:41:24;;;;;;;5.20;4.90;;;3.60;99.90;;;;;;5071393;28;20213;-53
2020/12/01 00:43:49;;;;;;;6.53;6.13;;;3.70;99.90;;;;;;5071042;28;20203;-51
2020/12/01 00:46:15;;;;;;;6.10;5.60;;;3.60;99.90;;;;;;5071355;28;20179;-49
2020/12/01 00:48:40;;;;;;;6.63;6.13;;;3.60;99.90;;;;;;5067103;28;20206;-49
2020/12/01 00:51:06;;;;;;;8.70;8.00;;;3.60;99.90;;;;;;5080028;28;20598;-52
2020/12/01 00:53:31;;;;;;;9.33;8.50;;;3.60;99.90;;;;;;5091058;28;20571;-51
2020/12/01 00:55:57;;;;;;;8.20;7.40;;;3.60;99.90;;;;;;5087394;28;20205;-50
2020/12/01 00:58:22;;;;;;;10.17;9.40;;;3.60;99.90;;;;;;5070683;28;20186;-49
2020/12/01 01:00:49;;;;;;;8.63;7.90;;;3.60;99.90;;;;;;5070769;28;20213;-54
2020/12/01 01:03:15;;;;;;;11.40;10.50;;;3.60;99.90;;;;;;5071114;28;20183;-51
2020/12/01 01:05:41;;;;;;;10.40;9.60;;;3.60;99.90;;;;;;5070835;28;20433;-50
2020/12/01 01:08:06;;;;;;;9.87;8.87;;;3.60;99.90;;;;;;5073082;28;20948;-52
2020/12/01 01:10:33;;;;;;;11.47;10.50;;;3.60;99.90;;;;;;5074748;28;20171;-54
2020/12/01 01:13:00;;;;;;;13.67;12.57;;;3.60;99.90;;;;;;5074513;28;20568;-50
2020/12/01 01:15:29;;;;;;;13.97;10.33;;;3.70;99.90;;;;;;5074355;28;20442;-50
2020/12/01 01:17:56;;;;;;;11.37;10.27;;;3.70;99.90;;;;;;5070026;28;20498;-50
2020/12/01 01:20:21;;;;;;;10.53;9.50;;;3.80;99.90;;;;;;5054367;28;20449;-50
2020/12/01 01:22:47;;;;;;;11.93;10.60;;;3.80;99.90;;;;;;5054336;28;20442;-52
2020/12/01 01:25:14;;;;;;;11.90;10.80;;;3.70;99.90;;;;;;5054234;28;20559;-54
2020/12/01 01:27:39;;;;;;;11.23;10.27;;;3.70;99.90;;;;;;5054168;28;20629;-50
2020/12/01 01:30:05;;;;;;;10.70;9.60;;;3.70;99.90;;;;;;5054152;28;20437;-52
2020/12/01 01:32:31;;;;;;;12.13;11.00;;;3.70;99.90;;;;;;5054215;28;20204;-52
2020/12/01 01:34:57;;;;;;;11.10;10.20;;;3.70;99.90;;;;;;5054056;28;20407;-50
2020/12/01 01:37:23;;;;;;;12.17;10.97;;;3.80;99.90;;;;;;5053843;28;20418;-54
2020/12/01 01:39:48;;;;;;;13.20;11.90;;;3.80;99.90;;;;;;5054113;28;20230;-51
2020/12/01 01:42:14;;;;;;;14.17;12.60;;;3.80;99.90;;;;;;5053920;28;20648;-50
2020/12/01 01:44:39;;;;;;;12.77;11.20;;;3.80;99.90;;;;;;5054045;28;20172;-51
2020/12/01 01:47:22;;;;;;;13.73;12.33;;;3.80;99.90;;;;;;5053638;28;20571;-50
2020/12/01 01:49:53;;;;;;;13.57;12.20;;;3.80;99.90;;;;;;5053968;28;20176;-51
2020/12/01 01:52:34;;;;;;;12.67;11.37;;;3.80;99.90;;;;;;5053796;28;20521;-49
2020/12/01 01:55:16;;;;;;;11.57;10.37;;;3.80;99.90;;;;;;5054054;28;20830;-50
2020/12/01 01:57:51;;;;;;;12.90;10.67;;;3.80;99.90;;;;;;5053415;28;20415;-50
2020/12/01 02:00:31;;;;;;;9.07;8.37;;;3.80;99.90;;;;;;5053701;28;20476;-50
2020/12/01 02:02:57;;;;;;;9.80;9.00;;;3.80;99.90;;;;;;5053625;28;20517;-52
2020/12/01 02:05:23;;;;;;;7.97;7.30;;;3.90;99.90;;;;;;5053672;28;20434;-51
2020/12/01 02:07:49;;;;;;;8.37;7.67;;;3.90;99.90;;;;;;5053222;28;20620;-49
2020/12/01 02:10:15;;;;;;;7.80;7.20;;;3.80;99.90;;;;;;5053640;28;20258;-49
2020/12/01 02:12:43;;;;;;;9.67;8.37;;;3.90;99.90;;;;;;5053271;28;20513;-50
2020/12/01 02:15:10;;;;;;;7.50;6.90;;;4.00;99.90;;;;;;5053450;28;20195;-50
2020/12/01 02:17:37;;;;;;;7.53;6.80;;;3.90;99.90;;;;;;5051614;28;20425;-54
2020/12/01 02:20:13;;;;;;;7.90;7.30;;;3.90;99.90;;;;;;5053418;28;20450;-49
2020/12/01 02:22:43;;;;;;;6.53;6.13;;;3.90;99.90;;;;;;5053157;28;20924;-50
2020/12/01 02:25:09;;;;;;;7.07;6.57;;;3.90;99.90;;;;;;5053293;28;20469;-53
2020/12/01 02:27:35;;;;;;;7.30;6.70;;;3.90;99.90;;;;;;5052795;28;20426;-50
2020/12/01 02:30:00;;;;;;;6.57;6.10;;;3.90;99.90;;;;;;5053279;28;20446;-51
2020/12/01 02:32:27;;;;;;;8.23;7.63;;;3.90;99.90;;;;;;5053006;28;20188;-56
2020/12/01 02:34:57;;;;;;;8.10;7.50;;;3.90;99.90;;;;;;5053086;28;20195;-50
2020/12/01 02:37:26;;;;;;;6.63;6.20;;;4.00;99.90;;;;;;5052774;28;20887;-51
2020/12/01 02:39:52;;;;;;;6.90;6.40;;;4.00;99.90;;;;;;5052839;28;20825;-50
2020/12/01 02:42:22;;;;;;;7.53;7.03;;;4.00;99.90;;;;;;5052774;28;20419;-50
2020/12/01 02:44:50;;;;;;;7.47;6.97;;;4.00;99.90;;;;;;5052964;28;20468;-49
2020/12/01 02:47:16;;;;;;;8.23;7.53;;;4.10;99.90;;;;;;5052503;28;20927;-49
2020/12/01 02:49:41;;;;;;;6.63;6.23;;;4.10;99.90;;;;;;5052863;28;20471;-53
2020/12/01 02:52:07;;;;;;;6.50;6.10;;;4.10;99.90;;;;;;5052691;28;20245;-52
2020/12/01 02:54:33;;;;;;;6.27;5.93;;;4.00;99.90;;;;;;5052683;28;20183;-49
2020/12/01 02:56:58;;;;;;;5.97;5.57;;;3.90;99.90;;;;;;5053827;28;20660;-59
2020/12/01 02:59:24;;;;;;;6.70;6.20;;;4.00;99.90;;;;;;5053798;28;20497;-59
2020/12/01 03:01:50;;;;;;;6.40;6.00;;;4.00;99.90;;;;;;5053572;28;20546;-60
2020/12/01 03:04:15;;;;;;;7.10;6.60;;;4.10;99.90;;;;;;5052947;28;20176;-59
2020/12/01 03:06:41;;;;;;;7.10;6.60;;;4.10;99.90;;;;;;5056101;28;20175;-60
2020/12/01 03:09:08;;;;;;;8.43;7.80;;;4.00;99.90;;;;;;5070231;28;20550;-60
2020/12/01 03:11:33;;;;;;;7.10;6.60;;;4.00;99.90;;;;;;5073548;28;20544;-59
2020/12/01 03:13:59;;;;;;;8.37;7.57;;;4.10;99.90;;;;;;5073105;28;20493;-58
2020/12/01 03:16:25;;;;;;;7.73;7.13;;;4.10;99.90;;;;;;5072280;28;20225;-59
2020/12/01 03:18:51;;;;;;;7.60;7.13;;;4.10;99.90;;;;;;5071821;28;20198;-60
2020/12/01 03:21:16;;;;;;;7.13;6.63;;;4.10;99.90;;;;;;5072866;28;20514;-60
2020/12/01 03:23:43;;;;;;;7.00;6.60;;;4.10;99.90;;;;;;5073203;28;20639;-60
2020/12/01 03:26:15;;;;;;;7.53;6.93;;;4.10;99.90;;;;;;5073500;28;20816;-60
2020/12/01 03:28:41;;;;;;;7.30;6.70;;;4.20;99.90;;;;;;5072134;28;20437;-60
2020/12/01 03:31:07;;;;;;;6.87;6.40;;;4.20;99.90;;;;;;5073258;28;20492;-59
2020/12/01 03:33:33;;;;;;;5.90;5.30;;;4.10;99.90;;;;;;5070697;28;21012;-60
2020/12/01 03:35:58;;;;;;;6.30;5.90;;;4.20;99.90;;;;;;5091750;28;20417;-59
2020/12/01 03:38:24;;;;;;;6.20;5.80;;;4.10;99.90;;;;;;5093023;28;20202;-58
2020/12/01 03:40:49;;;;;;;6.40;6.00;;;4.20;99.90;;;;;;5093641;28;20538;-60
2020/12/01 03:43:16;;;;;;;6.17;5.80;;;4.20;99.90;;;;;;5093185;28;20234;-60
2020/12/01 03:45:42;;;;;;;6.67;6.17;;;4.20;99.90;;;;;;5092734;28;20178;-60
2020/12/01 03:48:08;;;;;;;6.63;6.13;;;4.20;99.90;;;;;;5092821;28;20772;-60
2020/12/01 03:50:33;;;;;;;7.03;6.53;;;4.30;99.90;;;;;;5092988;28;20467;-59
2020/12/01 03:53:00;;;;;;;7.57;7.07;;;4.30;99.90;;;;;;5092819;28;20452;-60
2020/12/01 03:55:26;;;;;;;6.90;6.33;;;4.30;99.90;;;;;;5092928;28;20415;-60
2020/12/01 03:57:52;;;;;;;5.50;5.10;;;4.30;99.90;;;;;;5092458;28;20944;-61
2020/12/01 04:00:24;;;;;;;5.03;4.63;;;4.40;99.90;;;;;;5092575;28;20452;-59
2020/12/01 04:02:50;;;;;;;6.03;5.60;;;4.40;99.90;;;;;;5092893;28;20450;-60
2020/12/01 04:05:17;;;;;;;6.57;6.17;;;4.50;99.90;;;;;;5090822;28;20465;-59
2020/12/01 04:07:44;;;;;;;7.50;6.87;;;4.50;99.90;;;;;;5092526;28;20807;-60
2020/12/01 04:10:12;;;;;;;7.33;6.73;;;4.50;99.90;;;;;;5092479;28;20432;-61
2020/12/01 04:12:37;;;;;;;7.10;6.50;;;4.50;99.90;;;;;;5092487;28;20436;-58
2020/12/01 04:15:03;;;;;;;6.87;6.37;;;4.60;99.90;;;;;;5090974;28;20409;-59
2020/12/01 04:17:29;;;;;;;5.53;5.17;;;4.60;99.90;;;;;;5091100;28;20213;-59
2020/12/01 04:19:55;;;;;;;5.20;5.00;;;4.60;99.90;;;;;;5092485;28;21118;-57
2020/12/01 04:22:21;;;;;;;5.80;5.50;;;4.60;99.90;;;;;;5092619;28;20507;-61
2020/12/01 04:24:46;;;;;;;7.57;7.17;;;4.60;99.90;;;;;;5092480;28;20177;-60
2020/12/01 04:27:14;;;;;;;5.97;5.63;;;4.60;99.90;;;;;;5092311;28;20177;-61
2020/12/01 04:29:39;;;;;;;6.33;5.87;;;4.70;99.90;;;;;;5092602;28;20167;-59
2020/12/01 04:32:05;;;;;;;4.43;4.13;;;4.70;99.90;;;;;;5092301;28;20482;-60
2020/12/01 04:34:33;;;;;;;3.70;3.50;;;4.70;99.90;;;;;;5092585;28;20170;-61
2020/12/01 04:36:59;;;;;;;4.47;4.10;;;4.70;99.90;;;;;;5091621;28;20404;-58
2020/12/01 04:39:24;;;;;;;5.40;4.90;;;4.70;99.90;;;;;;5092334;28;20501;-58
2020/12/01 04:41:51;;;;;;;7.50;6.77;;;4.80;99.90;;;;;;5094318;28;20424;-60
2020/12/01 04:44:41;;;;;;;11.77;6.80;;;4.80;99.90;;;;;;5096608;28;20166;-61
2020/12/01 04:47:14;;;;;;;9.40;6.70;;;4.90;99.90;;;;;;5093558;28;20400;-61
2020/12/01 04:49:51;;;;;;;9.83;7.10;;;4.80;99.90;;;;;;5074139;28;20442;-61
2020/12/01 04:52:50;;;;;;;8.07;7.07;;;4.90;99.90;;;;;;5096352;28;20511;-60
2020/12/01 04:55:52;;;;;;;7.40;6.90;;;4.90;99.90;;;;;;5096402;28;20412;-60
2020/12/01 04:58:54;;;;;;;8.83;7.93;;;4.90;99.90;;;;;;5095966;28;20424;-58
2020/12/01 05:01:48;;;;;;;8.70;7.13;;;5.00;99.90;;;;;;5096481;28;20431;-59
2020/12/01 05:04:27;;;;;;;10.03;9.00;;;5.00;99.90;;;;;;5096404;28;20491;-59
2020/12/01 05:07:33;;;;;;;8.00;7.40;;;5.00;99.90;;;;;;5096300;28;20397;-59
2020/12/01 05:10:02;;;;;;;7.70;6.57;;;5.10;99.90;;;;;;5096537;28;20396;-60
2020/12/01 05:12:36;;;;;;;6.30;5.80;;;5.10;99.90;;;;;;5095908;28;20424;-58
2020/12/01 05:15:41;;;;;;;26.37;9.63;;;5.10;99.90;;;;;;5096242;28;20444;-61
2020/12/01 05:18:20;;;;;;;7.10;6.53;;;5.10;99.90;;;;;;5093051;28;20439;-60
2020/12/01 05:20:55;;;;;;;5.63;5.23;;;5.20;99.90;;;;;;5093732;28;20463;-60
2020/12/01 05:23:30;;;;;;;6.90;6.13;;;5.20;99.90;;;;;;5094863;28;20526;-61
2020/12/01 05:26:01;;;;;;;10.03;6.20;;;5.10;99.90;;;;;;5095511;28;20392;-59
2020/12/01 05:28:27;;;;;;;10.30;6.00;;;5.20;99.90;;;;;;5095181;28;20400;-60
2020/12/01 05:31:05;;;;;;;6.43;5.83;;;5.20;99.90;;;;;;5095366;28;20397;-59
2020/12/01 05:33:33;;;;;;;9.57;6.10;;;5.30;99.90;;;;;;5094862;28;20420;-59
2020/12/01 05:36:05;;;;;;;6.87;5.70;;;5.30;99.90;;;;;;5095073;28;20496;-60
2020/12/01 05:38:32;;;;;;;8.03;5.03;;;5.20;99.90;;;;;;5094545;28;20411;-60
2020/12/01 05:41:20;;;;;;;14.33;6.00;;;5.20;99.90;;;;;;5095277;28;20899;-60
2020/12/01 05:43:45;;;;;;;7.03;5.83;;;5.20;99.90;;;;;;5094570;28;20450;-60
2020/12/01 05:46:20;;;;;;;9.53;7.10;;;5.30;99.90;;;;;;5094911;28;20400;-60
2020/12/01 05:49:22;;;;;;;7.83;7.13;;;5.30;99.90;;;;;;5094562;28;20204;-60
2020/12/01 05:52:05;;;;;;;11.27;7.30;;;5.30;99.90;;;;;;5094100;28;20794;-59
2020/12/01 05:54:37;;;;;;;13.67;7.37;;;5.20;99.90;;;;;;5094467;28;20499;-61
2020/12/01 05:57:15;;;;;;;6.73;6.10;;;5.20;99.90;;;;;;5094472;28;20401;-60
2020/12/01 05:59:51;;;;;;;5.37;4.97;;;5.30;99.90;;;;;;5094490;28;20547;-60
2020/12/01 06:02:17;;;;;;;5.70;5.30;;;5.20;99.90;;;;;;5094655;28;20477;-60
2020/12/01 06:04:44;;;;;;;6.17;4.23;;;5.20;99.90;;;;;;5094836;28;20912;-60
2020/12/01 06:07:23;;;;;;;6.00;5.57;;;5.20;99.90;;;;;;5094151;28;20832;-58
2020/12/01 06:10:16;;;;;;;4.90;4.50;;;5.20;99.90;;;;;;5094382;28;20413;-61
2020/12/01 06:13:06;;;;;;;8.23;5.40;;;5.20;99.90;;;;;;5093754;28;20429;-60
2020/12/01 06:15:35;;;;;;;22.77;7.30;;;5.20;99.90;;;;;;5092888;28;20491;-59
2020/12/01 06:18:25;;;;;;;5.23;4.83;;;5.20;99.90;;;;;;5092204;28;20948;-60
2020/12/01 06:21:00;;;;;;;8.47;7.67;;;5.20;99.90;;;;;;5091479;28;20424;-60
2020/12/01 06:23:45;;;;;;;17.60;11.70;;;5.20;99.90;;;;;;5068726;28;20428;-60
2020/12/01 06:26:22;;;;;;;12.77;10.73;;;5.20;99.90;;;;;;5073468;28;20398;-60
2020/12/01 06:29:38;;;;;;;11.47;10.10;;;5.20;99.90;;;;;;5073375;28;20398;-61
2020/12/01 06:32:35;;;;;;;20.30;15.70;;;5.20;99.90;;;;;;5073065;28;20429;-60
2020/12/01 06:35:30;;;;;;;17.67;15.90;;;5.20;99.90;;;;;;5074522;28;20401;-60
2020/12/01 06:38:13;;;;;;;19.63;17.87;;;5.30;99.90;;;;;;5074231;28;20467;-60
2020/12/01 06:40:43;;;;;;;25.70;22.13;;;5.30;99.90;;;;;;5074429;28;20453;-60
2020/12/01 06:43:11;;;;;;;32.73;12.20;;;5.30;99.90;;;;;;5074393;28;20425;-61
2020/12/01 06:45:44;;;;;;;9.40;8.60;;;5.30;99.90;;;;;;5074102;28;20432;-59
2020/12/01 06:48:38;;;;;;;24.93;12.90;;;5.40;99.90;;;;;;5073822;28;20412;-59
2020/12/01 06:51:05;;;;;;;11.27;10.30;;;5.30;99.90;;;;;;5073663;28;20817;-59
2020/12/01 06:53:33;;;;;;;10.27;9.20;;;5.30;99.90;;;;;;5073459;28;20795;-60
2020/12/01 06:56:19;;;;;;;11.80;10.37;;;5.30;99.90;;;;;;5074319;28;20461;-60
2020/12/01 06:58:45;;;;;;;14.40;10.30;;;5.40;99.90;;;;;;5074458;28;20473;-60
2020/12/01 07:01:11;;;;;;;10.27;9.37;;;5.30;99.90;;;;;;5074805;28;20408;-61
2020/12/01 07:03:38;;;;;;;11.60;10.60;;;5.30;99.90;;;;;;5074370;28;20425;-60
2020/12/01 07:06:22;;;;;;;13.47;10.33;;;5.40;99.90;;;;;;5074533;28;20236;-60
2020/12/01 07:08:49;;;;;;;21.47;9.43;;;5.40;99.90;;;;;;5074351;28;20402;-58
2020/12/01 07:11:31;;;;;;;7.90;7.17;;;5.40;99.90;;;;;;5074655;28;20410;-60
2020/12/01 07:14:13;;;;;;;13.00;6.13;;;5.40;99.90;;;;;;5074320;28;20398;-61
2020/12/01 07:16:47;;;;;;;35.30;8.03;;;5.40;99.90;;;;;;5074487;28;20397;-60
2020/12/01 07:19:43;;;;;;;10.47;5.30;;;5.40;99.90;;;;;;5074642;28;20518;-60
2020/12/01 07:22:27;;;;;;;5.97;5.37;;;5.30;99.90;;;;;;5072145;28;20429;-60
2020/12/01 07:25:25;;;;;;;4.90;4.60;;;5.30;99.90;;;;;;5074818;28;20479;-60
2020/12/01 07:28:19;;;;;;;68.70;13.30;;;5.40;99.90;;;;;;5074123;28;20484;-60
2020/12/01 07:30:52;;;;;;;7.83;5.67;;;5.40;99.90;;;;;;5074443;28;20484;-59
2020/12/01 07:33:31;;;;;;;4.97;4.67;;;5.40;99.90;;;;;;5074265;28;20443;-60
2020/12/01 07:36:33;;;;;;;5.70;5.30;;;5.40;99.90;;;;;;5074433;28;20407;-61
2020/12/01 07:39:21;;;;;;;5.23;4.87;;;5.40;99.90;;;;;;5074103;28;20437;-61
2020/12/01 07:41:58;;;;;;;4.50;4.20;;;5.40;99.90;;;;;;5073779;28;20394;-60
2020/12/01 07:44:27;;;;;;;6.77;4.50;;;5.40;99.90;;;;;;5073986;28;20933;-61
2020/12/01 07:47:09;;;;;;;5.70;4.90;;;5.40;99.90;;;;;;5073331;28;20920;-59
2020/12/01 07:49:36;;;;;;;4.90;4.47;;;5.40;99.90;;;;;;5075428;28;20405;-60
2020/12/01 07:52:14;;;;;;;4.77;4.47;;;5.40;99.90;;;;;;5074667;28;20453;-60
2020/12/01 07:54:42;;;;;;;5.03;4.47;;;5.40;99.90;;;;;;5074008;28;20381;-61
2020/12/01 07:57:21;;;;;;;5.60;5.13;;;5.40;99.90;;;;;;5072544;28;20405;-60
2020/12/01 07:59:50;;;;;;;5.13;4.47;;;5.50;99.90;;;;;;5072110;28;20499;-60
2020/12/01 08:02:17;;;;;;;4.53;4.17;;;5.50;99.90;;;;;;5072025;28;20757;-60
2020/12/01 08:04:44;;;;;;;5.60;5.10;;;5.50;99.90;;;;;;5073145;28;20421;-60
2020/12/01 08:07:15;;;;;;;4.80;4.40;;;5.60;99.90;;;;;;5072825;28;21240;-61
2020/12/01 08:09:40;;;;;;;11.23;5.70;;;5.50;99.90;;;;;;5072630;28;20745;-61
2020/12/01 08:12:13;;;;;;;24.73;7.00;;;5.60;99.90;;;;;;5072324;28;20475;-61
2020/12/01 08:14:40;;;;;;;6.03;5.00;;;5.60;99.90;;;;;;5072330;28;20167;-61
2020/12/01 08:17:13;;;;;;;13.93;6.90;;;5.60;99.90;;;;;;5077097;28;20451;-61
2020/12/01 08:19:40;;;;;;;6.07;5.47;;;5.60;99.90;;;;;;5076743;28;20451;-61
2020/12/01 08:22:08;;;;;;;5.47;5.07;;;5.60;99.90;;;;;;5076769;28;20847;-60
2020/12/01 08:24:37;;;;;;;6.83;6.13;;;5.70;99.90;;;;;;5076964;28;20824;-61
2020/12/01 08:27:22;;;;;;;18.33;7.10;;;5.60;99.90;;;;;;5075961;28;20497;-59
2020/12/01 08:29:50;;;;;;;12.13;5.40;;;5.60;99.90;;;;;;5076185;28;20767;-61
2020/12/01 08:32:15;;;;;;;5.83;5.27;;;5.60;99.90;;;;;;5076373;28;20752;-61
2020/12/01 08:34:55;;;;;;;6.23;5.73;;;5.60;99.90;;;;;;5076518;28;20405;-61
2020/12/01 08:37:43;;;;;;;6.43;5.53;;;5.70;99.90;;;;;;5076334;28;20202;-61
2020/12/01 08:40:45;;;;;;;6.37;5.70;;;5.70;99.90;;;;;;5076222;28;20444;-60
2020/12/01 08:43:39;;;;;;;6.03;5.43;;;5.70;99.90;;;;;;5077049;28;20475;-61
2020/12/01 08:46:05;;;;;;;6.73;4.80;;;5.80;99.90;;;;;;5075657;28;20420;-60
2020/12/01 08:48:46;;;;;;;5.17;4.77;;;5.90;99.90;;;;;;5076663;28;20539;-61
2020/12/01 08:51:21;;;;;;;7.40;6.70;;;5.90;99.90;;;;;;5075365;28;20476;-60
2020/12/01 08:54:12;;;;;;;5.57;5.13;;;5.90;99.90;;;;;;5078160;28;20425;-61
2020/12/01 08:57:22;;;;;;;4.97;4.50;;;5.90;99.90;;;;;;5076232;28;20925;-57
2020/12/01 08:59:53;;;;;;;5.63;4.47;;;5.90;99.90;;;;;;5063531;28;20981;-59
2020/12/01 09:02:21;;;;;;;4.70;4.30;;;5.90;99.90;;;;;;5074888;28;20460;-58
2020/12/01 09:04:47;;;;;;;4.77;4.43;;;6.00;99.90;;;;;;5074585;28;20974;-58
2020/12/01 09:07:18;;;;;;;4.63;4.23;;;6.00;99.90;;;;;;5074472;28;20437;-59
2020/12/01 09:09:50;;;;;;;5.20;4.70;;;6.00;99.90;;;;;;5074569;28;20175;-59
2020/12/01 09:17:38;;;;;;;5.30;4.60;;;6.10;99.90;;;;;;5074443;28;20424;-59
2020/12/01 09:23:19;;;;;;;4.90;4.40;;;6.20;99.90;;;;;;5073018;28;20426;-60
2020/12/01 09:25:47;;;;;;;4.60;4.27;;;6.30;99.90;;;;;;5074337;28;20609;-58
2020/12/01 09:28:15;;;;;;;4.93;4.53;;;6.30;99.90;;;;;;5073275;28;20401;-59
2020/12/01 09:30:41;;;;;;;6.33;5.73;;;6.40;99.90;;;;;;5074294;28;20409;-59
2020/12/01 09:33:11;;;;;;;8.73;5.07;;;6.40;99.90;;;;;;5074358;28;20432;-55
2020/12/01 09:35:37;;;;;;;5.77;5.27;;;6.30;99.90;;;;;;5074159;28;21091;-56
2020/12/01 09:38:02;;;;;;;4.63;4.20;;;6.30;99.90;;;;;;5074025;28;20417;-54
2020/12/01 09:40:31;;;;;;;5.40;4.90;;;6.30;99.90;;;;;;5074057;28;20446;-59
2020/12/01 09:43:00;;;;;;;5.30;4.90;;;6.40;99.90;;;;;;5074054;28;20421;-57
2020/12/01 09:45:30;;;;;;;5.67;5.23;;;6.40;99.90;;;;;;5074123;28;20993;-56
2020/12/01 09:48:03;;;;;;;5.57;5.17;;;6.50;99.90;;;;;;5073898;28;20477;-55
2020/12/01 09:50:32;;;;;;;9.93;5.07;;;6.50;99.90;;;;;;5074188;28;20912;-58
2020/12/01 10:09:16;;;;;;;7.50;6.80;;;6.60;99.90;;;;;;5073735;28;20779;-58
2020/12/01 10:28:31;;;;;;;20.90;13.10;;;6.70;99.90;;;;;;5070518;28;20559;-59
2020/12/01 10:35:25;;;;;;;8.27;7.43;;;6.80;99.90;;;;;;5053390;28;20175;-58
2020/12/01 10:38:00;;;;;;;15.60;9.43;;;6.80;99.90;;;;;;5052550;28;20483;-58
2020/12/01 10:40:27;;;;;;;8.43;6.30;;;6.80;99.90;;;;;;5065648;28;20195;-55
2020/12/01 10:42:53;;;;;;;10.57;7.10;;;6.90;99.90;;;;;;5072938;28;20457;-58
2020/12/01 10:45:20;;;;;;;21.43;10.57;;;6.90;99.90;;;;;;5072411;28;20423;-56
2020/12/01 10:47:46;;;;;;;15.40;10.00;;;7.00;99.90;;;;;;5072602;28;20434;-59
2020/12/01 10:50:13;;;;;;;31.10;14.77;;;7.00;99.90;;;;;;5072480;28;20438;-60
2020/12/01 10:52:38;;;;;;;12.53;8.17;;;7.10;99.90;;;;;;5072753;28;20433;-58
2020/12/01 10:55:07;;;;;;;9.97;5.60;;;7.10;99.90;;;;;;5072527;28;20403;-59
2020/12/01 10:57:35;;;;;;;30.20;21.17;;;7.20;99.90;;;;;;5072410;28;20170;-60
2020/12/01 11:00:05;;;;;;;10.13;9.10;;;7.30;99.90;;;;;;5072097;28;20468;-58
2020/12/01 11:02:30;;;;;;;5.80;5.40;;;7.30;99.90;;;;;;5072595;28;20435;-59
2020/12/01 11:04:56;;;;;;;4.07;3.77;;;7.40;99.90;;;;;;5072433;28;20903;-58
2020/12/01 11:07:21;;;;;;;3.90;3.60;;;7.40;99.90;;;;;;5072118;28;20645;-56
2020/12/01 11:09:47;;;;;;;3.80;3.60;;;7.50;99.90;;;;;;5072622;28;20586;-59
2020/12/01 11:12:12;;;;;;;2.80;2.60;;;7.50;99.90;;;;;;5072196;28;20190;-56
2020/12/01 11:14:38;;;;;;;2.63;2.53;;;7.50;99.90;;;;;;5072208;28;20172;-57
2020/12/01 11:17:04;;;;;;;2.90;2.77;;;7.40;99.90;;;;;;5071906;28;20309;-59
2020/12/01 11:19:29;;;;;;;3.53;3.30;;;7.50;99.90;;;;;;5072445;28;20248;-57
2020/12/01 11:21:55;;;;;;;2.90;2.70;;;7.50;99.90;;;;;;5072041;28;20185;-60
2020/12/01 11:24:20;;;;;;;3.60;3.40;;;7.50;99.90;;;;;;5072224;28;20166;-57
2020/12/01 11:26:46;;;;;;;2.90;2.80;;;7.50;99.90;;;;;;5072025;28;20612;-54
2020/12/01 11:29:12;;;;;;;5.63;5.30;;;7.50;99.90;;;;;;5071893;28;20207;-58
2020/12/01 11:31:41;;;;;;;6.30;5.70;;;7.50;99.90;;;;;;5072495;28;20177;-60
2020/12/01 11:34:08;;;;;;;5.17;4.80;;;7.50;99.90;;;;;;5072083;28;20189;-60
2020/12/01 11:36:36;;;;;;;3.83;3.63;;;7.50;99.90;;;;;;5072434;28;20406;-60
2020/12/01 11:39:12;;;;;;;4.10;3.90;;;7.50;99.90;;;;;;5072111;28;20448;-60
2020/12/01 11:41:38;;;;;;;3.17;2.97;;;7.50;99.90;;;;;;5072148;28;20400;-60
2020/12/01 11:44:04;;;;;;;3.00;2.80;;;7.60;99.90;;;;;;5071831;28;20398;-60
2020/12/01 11:46:30;;;;;;;2.30;2.20;;;7.60;99.90;;;;;;5071946;28;20175;-59
2020/12/01 11:49:01;;;;;;;2.33;2.23;;;7.60;99.90;;;;;;5071918;28;20410;-60
2020/12/01 11:51:30;;;;;;;2.53;2.43;;;7.60;99.90;;;;;;5071599;28;20485;-60
2020/12/01 11:53:55;;;;;;;2.50;2.40;;;7.60;99.90;;;;;;5071866;28;20411;-60
2020/12/01 11:56:21;;;;;;;2.03;1.97;;;7.60;99.90;;;;;;5071561;28;20398;-60
2020/12/01 11:58:47;;;;;;;1.60;1.60;;;7.60;99.90;;;;;;5071312;28;20660;-57
2020/12/01 12:01:15;;;;;;;1.90;1.90;;;7.60;99.90;;;;;;5070554;28;20464;-60
2020/12/01 12:03:43;;;;;;;2.43;2.33;;;7.60;99.90;;;;;;5071804;28;20793;-59
2020/12/01 12:06:10;;;;;;;2.57;2.47;;;7.60;99.90;;;;;;5071733;28;20464;-59
2020/12/01 12:08:36;;;;;;;2.60;2.50;;;7.60;99.90;;;;;;5071914;28;20499;-59
2020/12/01 12:11:01;;;;;;;2.90;2.70;;;7.70;99.90;;;;;;5071623;28;20504;-58
2020/12/01 12:13:27;;;;;;;3.33;3.10;;;7.60;99.90;;;;;;5071722;28;20211;-57
2020/12/01 12:15:54;;;;;;;2.97;2.87;;;7.50;99.90;;;;;;5072055;28;20179;-59
2020/12/01 12:18:19;;;;;;;3.37;3.17;;;7.50;99.90;;;;;;5071748;28;20186;-60
2020/12/01 12:20:45;;;;;;;3.10;2.90;;;7.60;99.90;;;;;;5071976;28;20457;-60
2020/12/01 12:23:10;;;;;;;5.27;3.97;;;7.50;99.90;;;;;;5071448;28;20963;-60
2020/12/01 12:25:36;;;;;;;3.77;3.47;;;7.50;99.90;;;;;;5071943;28;20164;-60
2020/12/01 12:28:02;;;;;;;6.57;5.97;;;7.50;99.90;;;;;;5071336;28;20169;-57
2020/12/01 12:30:28;;;;;;;5.47;4.97;;;7.60;99.90;;;;;;5072199;28;20173;-60
2020/12/01 12:32:53;;;;;;;6.10;5.50;;;7.50;99.90;;;;;;5071410;28;20427;-58
2020/12/01 12:35:19;;;;;;;7.13;6.53;;;7.50;99.90;;;;;;5071486;28;20169;-65
2020/12/01 12:37:44;;;;;;;9.67;7.57;;;7.50;99.90;;;;;;5071659;28;20172;-65
2020/12/01 12:40:10;;;;;;;6.13;5.53;;;7.40;99.90;;;;;;5072413;28;20341;-64
2020/12/01 12:42:36;;;;;;;4.40;3.90;;;7.40;99.90;;;;;;5071277;28;20185;-64
2020/12/01 12:45:03;;;;;;;3.20;3.00;;;7.40;99.90;;;;;;5071412;28;20458;-55
2020/12/01 12:47:29;;;;;;;3.00;2.80;;;7.40;99.90;;;;;;5071138;28;20248;-60
2020/12/01 12:49:55;;;;;;;6.60;4.37;;;7.40;99.90;;;;;;5071267;28;20931;-60
2020/12/01 12:52:20;;;;;;;3.57;3.27;;;7.30;99.90;;;;;;5071282;28;20198;-60
2020/12/01 12:54:46;;;;;;;5.70;4.60;;;7.30;99.90;;;;;;5069793;28;20234;-59
2020/12/01 12:57:11;;;;;;;3.67;3.37;;;7.30;99.90;;;;;;5071038;28;20171;-57
2020/12/01 12:59:37;;;;;;;2.97;2.77;;;7.30;99.90;;;;;;5071286;28;20207;-60
2020/12/01 13:02:02;;;;;;;4.17;3.77;;;7.40;99.90;;;;;;5072490;28;20632;-60
2020/12/01 13:04:28;;;;;;;4.57;4.27;;;7.30;99.90;;;;;;5074972;28;20537;-60
2020/12/01 13:06:54;;;;;;;5.93;5.33;;;7.30;99.90;;;;;;5074817;28;20656;-59
2020/12/01 13:09:23;;;;;;;4.60;4.30;;;7.30;99.90;;;;;;5074971;28;20172;-59
2020/12/01 13:11:49;;;;;;;4.83;4.43;;;7.30;99.90;;;;;;5074717;28;20261;-59
2020/12/01 13:14:14;;;;;;;9.00;7.27;;;7.30;99.90;;;;;;5074920;28;20511;-60
2020/12/01 13:16:40;;;;;;;6.00;5.10;;;7.30;99.90;;;;;;5074500;28;20436;-61
2020/12/01 13:19:05;;;;;;;5.50;5.10;;;7.40;99.90;;;;;;5075480;28;20197;-60
2020/12/01 13:21:33;;;;;;;7.53;6.87;;;7.50;99.90;;;;;;5074474;28;20220;-63
2020/12/01 13:23:58;;;;;;;5.70;5.40;;;7.50;99.90;;;;;;5074650;28;20608;-62
2020/12/01 13:26:24;;;;;;;10.10;8.40;;;7.50;99.90;;;;;;5074307;28;20395;-61
2020/12/01 13:28:50;;;;;;;6.07;5.57;;;7.50;99.90;;;;;;5074317;28;20171;-61
2020/12/01 13:31:15;;;;;;;3.13;3.00;;;7.40;99.90;;;;;;5074373;28;20168;-60
2020/12/01 13:33:43;;;;;;;6.17;4.70;;;7.40;99.90;;;;;;5074339;28;20565;-60
2020/12/01 13:36:09;;;;;;;8.40;6.80;;;7.40;99.90;;;;;;5074418;28;20164;-60
2020/12/01 13:38:35;;;;;;;5.03;4.53;;;7.40;99.90;;;;;;5073798;28;20418;-61
2020/12/01 13:41:00;;;;;;;5.60;5.10;;;7.40;99.90;;;;;;5074150;28;20455;-63
2020/12/01 13:43:26;;;;;;;5.33;5.00;;;7.40;99.90;;;;;;5074123;28;20190;-63
2020/12/01 13:45:51;;;;;;;6.03;4.60;;;7.40;99.90;;;;;;5072978;28;20270;-62
2020/12/01 13:48:17;;;;;;;4.27;3.93;;;7.40;99.90;;;;;;5073688;28;20670;-62
2020/12/01 13:50:43;;;;;;;3.30;3.10;;;7.30;99.90;;;;;;5074041;28;20828;-62
2020/12/01 13:53:08;;;;;;;3.70;3.40;;;7.40;99.90;;;;;;5073843;28;20197;-63
2020/12/01 13:55:34;;;;;;;6.50;5.87;;;7.40;99.90;;;;;;5073923;28;20180;-62